sensor_id;sensor_type;location;lat;lon;timestamp;P1;durP1;ratioP1;P2;durP2;ratioP2
651;SDS011;310;48.490;9.200;2022-07-29T00:02:12;20.73;;;13.20;;
651;SDS011;310;48.490;9.200;2022-07-29T00:04:38;16.97;;;13.10;;
651;SDS011;310;48.490;9.200;2022-07-29T00:07:03;14.93;;;12.10;;
651;SDS011;310;48.490;9.200;2022-07-29T00:09:30;25.53;;;12.43;;
651;SDS011;310;48.490;9.200;2022-07-29T00:11:56;22.10;;;13.37;;
651;SDS011;310;48.490;9.200;2022-07-29T00:14:25;17.47;;;13.20;;
651;SDS011;310;48.490;9.200;2022-07-29T00:16:51;21.90;;;13.40;;
651;SDS011;310;48.490;9.200;2022-07-29T00:19:17;21.80;;;12.70;;
651;SDS011;310;48.490;9.200;2022-07-29T00:21:43;18.07;;;13.20;;
651;SDS011;310;48.490;9.200;2022-07-29T00:24:08;16.80;;;12.60;;
651;SDS011;310;48.490;9.200;2022-07-29T00:26:34;17.17;;;14.20;;
651;SDS011;310;48.490;9.200;2022-07-29T00:29:00;16.10;;;11.63;;
651;SDS011;310;48.490;9.200;2022-07-29T00:31:27;22.80;;;12.87;;
651;SDS011;310;48.490;9.200;2022-07-29T00:33:52;17.07;;;10.83;;
651;SDS011;310;48.490;9.200;2022-07-29T00:36:18;15.17;;;10.40;;
651;SDS011;310;48.490;9.200;2022-07-29T00:38:45;15.00;;;11.77;;
651;SDS011;310;48.490;9.200;2022-07-29T00:41:15;11.00;;;9.40;;
651;SDS011;310;48.490;9.200;2022-07-29T00:43:41;14.63;;;9.97;;
651;SDS011;310;48.490;9.200;2022-07-29T00:46:07;17.00;;;10.70;;
651;SDS011;310;48.490;9.200;2022-07-29T00:48:33;9.47;;;8.83;;
651;SDS011;310;48.490;9.200;2022-07-29T00:50:58;23.00;;;11.60;;
651;SDS011;310;48.490;9.200;2022-07-29T00:53:26;14.93;;;10.90;;
651;SDS011;310;48.490;9.200;2022-07-29T00:55:55;11.50;;;10.67;;
651;SDS011;310;48.490;9.200;2022-07-29T00:58:22;20.00;;;10.90;;
651;SDS011;310;48.490;9.200;2022-07-29T01:00:49;15.07;;;12.77;;
651;SDS011;310;48.490;9.200;2022-07-29T01:03:15;23.77;;;13.33;;
651;SDS011;310;48.490;9.200;2022-07-29T01:05:41;17.30;;;12.33;;
651;SDS011;310;48.490;9.200;2022-07-29T01:08:09;15.13;;;11.77;;
651;SDS011;310;48.490;9.200;2022-07-29T01:10:37;17.50;;;12.20;;
651;SDS011;310;48.490;9.200;2022-07-29T01:13:04;15.40;;;11.80;;
651;SDS011;310;48.490;9.200;2022-07-29T01:15:30;13.20;;;11.63;;
651;SDS011;310;48.490;9.200;2022-07-29T01:18:07;16.30;;;11.80;;
651;SDS011;310;48.490;9.200;2022-07-29T01:31:49;16.70;;;10.37;;
651;SDS011;310;48.490;9.200;2022-07-29T01:39:58;19.53;;;11.37;;
651;SDS011;310;48.490;9.200;2022-07-29T01:42:36;12.77;;;9.90;;
651;SDS011;310;48.490;9.200;2022-07-29T01:48:07;14.80;;;10.93;;
651;SDS011;310;48.490;9.200;2022-07-29T01:50:36;20.53;;;11.07;;
651;SDS011;310;48.490;9.200;2022-07-29T01:53:32;16.33;;;11.30;;
651;SDS011;310;48.490;9.200;2022-07-29T01:56:02;16.40;;;10.93;;
651;SDS011;310;48.490;9.200;2022-07-29T01:58:29;24.80;;;12.80;;
651;SDS011;310;48.490;9.200;2022-07-29T02:00:57;17.80;;;12.13;;
651;SDS011;310;48.490;9.200;2022-07-29T02:03:24;15.90;;;12.13;;
651;SDS011;310;48.490;9.200;2022-07-29T02:05:51;24.30;;;13.27;;
651;SDS011;310;48.490;9.200;2022-07-29T02:08:18;19.13;;;13.23;;
651;SDS011;310;48.490;9.200;2022-07-29T02:10:47;16.90;;;13.00;;
651;SDS011;310;48.490;9.200;2022-07-29T02:13:14;25.00;;;12.33;;
651;SDS011;310;48.490;9.200;2022-07-29T02:15:41;22.63;;;13.00;;
651;SDS011;310;48.490;9.200;2022-07-29T02:18:09;20.10;;;13.77;;
651;SDS011;310;48.490;9.200;2022-07-29T02:20:39;16.53;;;13.80;;
651;SDS011;310;48.490;9.200;2022-07-29T02:23:07;20.67;;;13.07;;
651;SDS011;310;48.490;9.200;2022-07-29T02:25:36;19.80;;;13.10;;
651;SDS011;310;48.490;9.200;2022-07-29T02:28:03;19.70;;;12.90;;
651;SDS011;310;48.490;9.200;2022-07-29T02:30:30;16.53;;;13.20;;
651;SDS011;310;48.490;9.200;2022-07-29T02:32:57;16.57;;;13.60;;
651;SDS011;310;48.490;9.200;2022-07-29T02:35:24;17.60;;;13.83;;
651;SDS011;310;48.490;9.200;2022-07-29T02:37:50;17.47;;;13.40;;
651;SDS011;310;48.490;9.200;2022-07-29T02:40:37;19.27;;;12.97;;
651;SDS011;310;48.490;9.200;2022-07-29T02:43:05;18.20;;;13.30;;
651;SDS011;310;48.490;9.200;2022-07-29T02:45:33;15.67;;;13.50;;
651;SDS011;310;48.490;9.200;2022-07-29T02:47:59;16.67;;;14.30;;
651;SDS011;310;48.490;9.200;2022-07-29T02:50:34;26.87;;;14.50;;
651;SDS011;310;48.490;9.200;2022-07-29T02:53:07;16.40;;;13.70;;
651;SDS011;310;48.490;9.200;2022-07-29T02:55:43;19.60;;;15.30;;
651;SDS011;310;48.490;9.200;2022-07-29T02:58:29;18.00;;;13.00;;
651;SDS011;310;48.490;9.200;2022-07-29T03:00:58;21.37;;;14.70;;
651;SDS011;310;48.490;9.200;2022-07-29T03:03:30;19.33;;;13.50;;
651;SDS011;310;48.490;9.200;2022-07-29T03:05:59;19.23;;;14.30;;
651;SDS011;310;48.490;9.200;2022-07-29T03:08:26;21.43;;;13.63;;
651;SDS011;310;48.490;9.200;2022-07-29T03:10:53;27.47;;;14.77;;
651;SDS011;310;48.490;9.200;2022-07-29T03:13:20;23.33;;;14.10;;
651;SDS011;310;48.490;9.200;2022-07-29T03:15:46;19.30;;;13.37;;
651;SDS011;310;48.490;9.200;2022-07-29T03:18:12;21.33;;;12.77;;
651;SDS011;310;48.490;9.200;2022-07-29T03:20:39;27.67;;;12.80;;
651;SDS011;310;48.490;9.200;2022-07-29T03:23:05;16.07;;;12.93;;
651;SDS011;310;48.490;9.200;2022-07-29T03:25:32;18.90;;;13.20;;
651;SDS011;310;48.490;9.200;2022-07-29T03:27:58;22.83;;;12.30;;
651;SDS011;310;48.490;9.200;2022-07-29T03:30:24;17.10;;;11.90;;
651;SDS011;310;48.490;9.200;2022-07-29T03:32:50;16.40;;;11.30;;
651;SDS011;310;48.490;9.200;2022-07-29T03:35:17;14.50;;;11.20;;
651;SDS011;310;48.490;9.200;2022-07-29T03:37:43;13.97;;;11.77;;
651;SDS011;310;48.490;9.200;2022-07-29T03:40:10;15.07;;;11.30;;
651;SDS011;310;48.490;9.200;2022-07-29T03:42:39;13.00;;;10.40;;
651;SDS011;310;48.490;9.200;2022-07-29T03:45:07;19.03;;;10.90;;
651;SDS011;310;48.490;9.200;2022-07-29T03:47:38;13.43;;;10.87;;
651;SDS011;310;48.490;9.200;2022-07-29T03:50:08;14.43;;;9.90;;
651;SDS011;310;48.490;9.200;2022-07-29T03:52:35;15.43;;;10.20;;
651;SDS011;310;48.490;9.200;2022-07-29T03:55:02;13.93;;;10.53;;
651;SDS011;310;48.490;9.200;2022-07-29T03:57:28;15.70;;;10.53;;
651;SDS011;310;48.490;9.200;2022-07-29T03:59:56;16.13;;;12.57;;
651;SDS011;310;48.490;9.200;2022-07-29T04:02:23;14.70;;;11.23;;
651;SDS011;310;48.490;9.200;2022-07-29T04:04:50;18.90;;;12.00;;
651;SDS011;310;48.490;9.200;2022-07-29T04:07:17;18.03;;;12.50;;
651;SDS011;310;48.490;9.200;2022-07-29T04:09:42;13.87;;;11.03;;
651;SDS011;310;48.490;9.200;2022-07-29T04:12:08;21.60;;;12.20;;
651;SDS011;310;48.490;9.200;2022-07-29T04:14:34;14.10;;;10.83;;
651;SDS011;310;48.490;9.200;2022-07-29T04:17:01;12.80;;;11.60;;
651;SDS011;310;48.490;9.200;2022-07-29T04:19:29;16.00;;;12.47;;
651;SDS011;310;48.490;9.200;2022-07-29T04:21:54;27.03;;;12.53;;
651;SDS011;310;48.490;9.200;2022-07-29T04:24:20;15.70;;;12.50;;
651;SDS011;310;48.490;9.200;2022-07-29T04:26:46;25.60;;;13.13;;
651;SDS011;310;48.490;9.200;2022-07-29T04:29:12;16.63;;;14.00;;
651;SDS011;310;48.490;9.200;2022-07-29T04:31:39;25.20;;;14.30;;
651;SDS011;310;48.490;9.200;2022-07-29T04:34:05;17.93;;;14.30;;
651;SDS011;310;48.490;9.200;2022-07-29T04:36:31;15.47;;;13.07;;
651;SDS011;310;48.490;9.200;2022-07-29T04:38:57;18.23;;;14.57;;
651;SDS011;310;48.490;9.200;2022-07-29T04:41:22;20.43;;;15.20;;
651;SDS011;310;48.490;9.200;2022-07-29T04:43:48;28.17;;;18.03;;
651;SDS011;310;48.490;9.200;2022-07-29T04:46:14;28.43;;;21.07;;
651;SDS011;310;48.490;9.200;2022-07-29T04:48:40;37.10;;;24.03;;
651;SDS011;310;48.490;9.200;2022-07-29T04:51:05;32.97;;;24.37;;
651;SDS011;310;48.490;9.200;2022-07-29T04:53:31;26.03;;;20.53;;
651;SDS011;310;48.490;9.200;2022-07-29T04:55:56;22.40;;;17.07;;
651;SDS011;310;48.490;9.200;2022-07-29T04:58:22;21.37;;;18.13;;
651;SDS011;310;48.490;9.200;2022-07-29T05:00:48;23.17;;;18.17;;
651;SDS011;310;48.490;9.200;2022-07-29T05:03:14;22.40;;;17.27;;
651;SDS011;310;48.490;9.200;2022-07-29T05:05:40;24.73;;;18.70;;
651;SDS011;310;48.490;9.200;2022-07-29T05:08:07;25.73;;;17.13;;
651;SDS011;310;48.490;9.200;2022-07-29T05:10:33;24.70;;;17.40;;
651;SDS011;310;48.490;9.200;2022-07-29T05:13:02;24.03;;;14.77;;
651;SDS011;310;48.490;9.200;2022-07-29T05:15:33;19.97;;;15.70;;
651;SDS011;310;48.490;9.200;2022-07-29T05:17:59;19.17;;;15.33;;
651;SDS011;310;48.490;9.200;2022-07-29T05:20:25;24.77;;;18.40;;
651;SDS011;310;48.490;9.200;2022-07-29T05:22:53;26.53;;;20.33;;
651;SDS011;310;48.490;9.200;2022-07-29T05:25:23;23.00;;;17.27;;
651;SDS011;310;48.490;9.200;2022-07-29T05:27:50;28.03;;;17.10;;
651;SDS011;310;48.490;9.200;2022-07-29T05:30:15;22.70;;;16.60;;
651;SDS011;310;48.490;9.200;2022-07-29T05:32:41;23.03;;;16.90;;
651;SDS011;310;48.490;9.200;2022-07-29T05:35:07;20.03;;;16.47;;
651;SDS011;310;48.490;9.200;2022-07-29T05:37:33;21.40;;;18.10;;
651;SDS011;310;48.490;9.200;2022-07-29T05:39:59;20.10;;;16.37;;
651;SDS011;310;48.490;9.200;2022-07-29T05:42:25;20.00;;;15.50;;
651;SDS011;310;48.490;9.200;2022-07-29T05:44:51;15.37;;;12.93;;
651;SDS011;310;48.490;9.200;2022-07-29T05:47:18;16.80;;;14.20;;
651;SDS011;310;48.490;9.200;2022-07-29T05:49:44;20.60;;;15.00;;
651;SDS011;310;48.490;9.200;2022-07-29T05:52:11;17.87;;;14.90;;
651;SDS011;310;48.490;9.200;2022-07-29T05:54:38;25.87;;;15.53;;
651;SDS011;310;48.490;9.200;2022-07-29T05:57:04;17.33;;;15.43;;
651;SDS011;310;48.490;9.200;2022-07-29T05:59:30;20.33;;;15.33;;
651;SDS011;310;48.490;9.200;2022-07-29T06:01:56;19.33;;;15.13;;
651;SDS011;310;48.490;9.200;2022-07-29T06:04:22;20.07;;;13.90;;
651;SDS011;310;48.490;9.200;2022-07-29T06:06:48;23.23;;;15.57;;
651;SDS011;310;48.490;9.200;2022-07-29T06:09:13;19.03;;;14.07;;
651;SDS011;310;48.490;9.200;2022-07-29T06:11:40;19.67;;;13.50;;
651;SDS011;310;48.490;9.200;2022-07-29T06:14:05;16.47;;;13.57;;
651;SDS011;310;48.490;9.200;2022-07-29T06:16:31;16.63;;;12.87;;
651;SDS011;310;48.490;9.200;2022-07-29T06:18:56;14.90;;;13.50;;
651;SDS011;310;48.490;9.200;2022-07-29T06:21:22;15.27;;;13.03;;
651;SDS011;310;48.490;9.200;2022-07-29T06:23:48;16.43;;;13.27;;
651;SDS011;310;48.490;9.200;2022-07-29T06:26:13;21.67;;;12.20;;
651;SDS011;310;48.490;9.200;2022-07-29T06:28:39;15.73;;;11.80;;
651;SDS011;310;48.490;9.200;2022-07-29T06:31:05;15.43;;;12.10;;
651;SDS011;310;48.490;9.200;2022-07-29T06:33:30;18.90;;;13.20;;
651;SDS011;310;48.490;9.200;2022-07-29T06:35:56;20.43;;;12.47;;
651;SDS011;310;48.490;9.200;2022-07-29T06:38:22;17.07;;;13.17;;
651;SDS011;310;48.490;9.200;2022-07-29T06:40:47;18.40;;;12.00;;
651;SDS011;310;48.490;9.200;2022-07-29T06:43:26;16.63;;;12.70;;
651;SDS011;310;48.490;9.200;2022-07-29T06:45:53;20.47;;;10.77;;
651;SDS011;310;48.490;9.200;2022-07-29T06:48:19;14.77;;;9.73;;
651;SDS011;310;48.490;9.200;2022-07-29T06:50:45;18.40;;;10.50;;
651;SDS011;310;48.490;9.200;2022-07-29T06:53:10;12.87;;;9.90;;
651;SDS011;310;48.490;9.200;2022-07-29T06:55:36;11.60;;;9.33;;
651;SDS011;310;48.490;9.200;2022-07-29T06:58:02;12.50;;;8.63;;
651;SDS011;310;48.490;9.200;2022-07-29T07:00:27;14.23;;;9.07;;
651;SDS011;310;48.490;9.200;2022-07-29T07:02:53;10.30;;;8.77;;
651;SDS011;310;48.490;9.200;2022-07-29T07:05:19;11.00;;;9.20;;
651;SDS011;310;48.490;9.200;2022-07-29T07:07:44;10.40;;;8.20;;
651;SDS011;310;48.490;9.200;2022-07-29T07:10:10;8.93;;;7.77;;
651;SDS011;310;48.490;9.200;2022-07-29T07:12:36;14.13;;;8.13;;
651;SDS011;310;48.490;9.200;2022-07-29T07:15:01;13.03;;;8.00;;
651;SDS011;310;48.490;9.200;2022-07-29T07:17:28;18.27;;;8.00;;
651;SDS011;310;48.490;9.200;2022-07-29T07:19:53;8.60;;;7.87;;
651;SDS011;310;48.490;9.200;2022-07-29T07:22:19;11.43;;;7.50;;
651;SDS011;310;48.490;9.200;2022-07-29T07:24:45;8.93;;;7.30;;
651;SDS011;310;48.490;9.200;2022-07-29T07:27:10;9.97;;;7.20;;
651;SDS011;310;48.490;9.200;2022-07-29T07:29:36;11.03;;;7.10;;
651;SDS011;310;48.490;9.200;2022-07-29T07:32:05;11.17;;;7.13;;
651;SDS011;310;48.490;9.200;2022-07-29T07:34:32;13.07;;;7.67;;
651;SDS011;310;48.490;9.200;2022-07-29T07:36:57;7.67;;;7.03;;
651;SDS011;310;48.490;9.200;2022-07-29T07:39:23;7.50;;;6.77;;
651;SDS011;310;48.490;9.200;2022-07-29T07:41:49;8.77;;;7.00;;
651;SDS011;310;48.490;9.200;2022-07-29T07:44:15;9.63;;;7.03;;
651;SDS011;310;48.490;9.200;2022-07-29T07:46:41;8.43;;;6.90;;
651;SDS011;310;48.490;9.200;2022-07-29T07:49:06;9.37;;;6.97;;
651;SDS011;310;48.490;9.200;2022-07-29T07:51:32;13.80;;;6.63;;
651;SDS011;310;48.490;9.200;2022-07-29T07:53:57;10.90;;;7.17;;
651;SDS011;310;48.490;9.200;2022-07-29T07:56:23;11.83;;;7.40;;
651;SDS011;310;48.490;9.200;2022-07-29T07:58:48;14.60;;;7.13;;
651;SDS011;310;48.490;9.200;2022-07-29T08:01:14;13.00;;;6.83;;
651;SDS011;310;48.490;9.200;2022-07-29T08:03:43;8.57;;;6.63;;
651;SDS011;310;48.490;9.200;2022-07-29T08:06:09;12.03;;;7.07;;
651;SDS011;310;48.490;9.200;2022-07-29T08:08:34;10.90;;;7.20;;
651;SDS011;310;48.490;9.200;2022-07-29T08:11:00;9.50;;;7.40;;
651;SDS011;310;48.490;9.200;2022-07-29T08:13:27;13.60;;;7.03;;
651;SDS011;310;48.490;9.200;2022-07-29T08:15:53;9.60;;;6.70;;
651;SDS011;310;48.490;9.200;2022-07-29T08:18:27;8.80;;;6.90;;
651;SDS011;310;48.490;9.200;2022-07-29T08:20:54;10.33;;;7.60;;
651;SDS011;310;48.490;9.200;2022-07-29T08:23:20;9.73;;;7.00;;
651;SDS011;310;48.490;9.200;2022-07-29T08:25:46;11.53;;;7.27;;
651;SDS011;310;48.490;9.200;2022-07-29T08:28:11;13.40;;;6.93;;
651;SDS011;310;48.490;9.200;2022-07-29T08:30:37;7.80;;;6.50;;
651;SDS011;310;48.490;9.200;2022-07-29T08:33:03;9.80;;;6.73;;
651;SDS011;310;48.490;9.200;2022-07-29T08:35:28;8.63;;;6.90;;
651;SDS011;310;48.490;9.200;2022-07-29T08:37:54;11.67;;;7.20;;
651;SDS011;310;48.490;9.200;2022-07-29T08:40:21;20.00;;;6.90;;
651;SDS011;310;48.490;9.200;2022-07-29T08:42:48;18.33;;;7.57;;
651;SDS011;310;48.490;9.200;2022-07-29T08:45:14;14.87;;;7.20;;
651;SDS011;310;48.490;9.200;2022-07-29T08:47:40;17.93;;;6.20;;
651;SDS011;310;48.490;9.200;2022-07-29T08:50:07;16.27;;;6.43;;
651;SDS011;310;48.490;9.200;2022-07-29T08:52:38;10.00;;;6.40;;
651;SDS011;310;48.490;9.200;2022-07-29T08:55:05;13.57;;;6.50;;
651;SDS011;310;48.490;9.200;2022-07-29T08:57:32;8.60;;;6.47;;
651;SDS011;310;48.490;9.200;2022-07-29T08:59:59;9.70;;;6.60;;
651;SDS011;310;48.490;9.200;2022-07-29T09:02:26;8.50;;;6.40;;
651;SDS011;310;48.490;9.200;2022-07-29T09:04:54;10.33;;;6.60;;
651;SDS011;310;48.490;9.200;2022-07-29T09:07:23;12.83;;;7.00;;
651;SDS011;310;48.490;9.200;2022-07-29T09:09:48;12.57;;;6.57;;
651;SDS011;310;48.490;9.200;2022-07-29T09:12:14;8.03;;;6.83;;
651;SDS011;310;48.490;9.200;2022-07-29T09:14:41;10.80;;;6.77;;
651;SDS011;310;48.490;9.200;2022-07-29T09:17:07;8.33;;;6.50;;
651;SDS011;310;48.490;9.200;2022-07-29T09:19:34;10.50;;;6.73;;
651;SDS011;310;48.490;9.200;2022-07-29T09:22:01;11.43;;;6.80;;
651;SDS011;310;48.490;9.200;2022-07-29T09:24:40;9.70;;;6.00;;
651;SDS011;310;48.490;9.200;2022-07-29T09:29:42;10.90;;;6.17;;
651;SDS011;310;48.490;9.200;2022-07-29T09:32:08;10.10;;;6.43;;
651;SDS011;310;48.490;9.200;2022-07-29T09:34:35;10.30;;;6.83;;
651;SDS011;310;48.490;9.200;2022-07-29T09:37:02;7.73;;;5.83;;
651;SDS011;310;48.490;9.200;2022-07-29T09:39:35;10.73;;;6.40;;
651;SDS011;310;48.490;9.200;2022-07-29T09:42:04;11.10;;;6.37;;
651;SDS011;310;48.490;9.200;2022-07-29T09:44:40;10.23;;;6.70;;
651;SDS011;310;48.490;9.200;2022-07-29T09:47:06;14.63;;;7.30;;
651;SDS011;310;48.490;9.200;2022-07-29T09:49:32;11.20;;;6.87;;
651;SDS011;310;48.490;9.200;2022-07-29T09:52:00;12.63;;;6.80;;
651;SDS011;310;48.490;9.200;2022-07-29T09:54:29;12.23;;;6.57;;
651;SDS011;310;48.490;9.200;2022-07-29T09:57:01;11.13;;;7.00;;
651;SDS011;310;48.490;9.200;2022-07-29T09:59:28;9.73;;;7.17;;
651;SDS011;310;48.490;9.200;2022-07-29T10:01:54;8.73;;;6.50;;
651;SDS011;310;48.490;9.200;2022-07-29T10:04:20;15.93;;;7.23;;
651;SDS011;310;48.490;9.200;2022-07-29T10:06:55;8.07;;;6.80;;
651;SDS011;310;48.490;9.200;2022-07-29T10:09:22;26.43;;;7.87;;
651;SDS011;310;48.490;9.200;2022-07-29T10:12:07;10.80;;;7.23;;
651;SDS011;310;48.490;9.200;2022-07-29T10:14:40;11.60;;;7.60;;
651;SDS011;310;48.490;9.200;2022-07-29T10:17:07;10.90;;;7.30;;
651;SDS011;310;48.490;9.200;2022-07-29T10:19:34;15.03;;;7.43;;
651;SDS011;310;48.490;9.200;2022-07-29T10:22:02;10.47;;;7.53;;
651;SDS011;310;48.490;9.200;2022-07-29T10:24:29;19.00;;;7.20;;
651;SDS011;310;48.490;9.200;2022-07-29T10:26:56;11.10;;;7.23;;
651;SDS011;310;48.490;9.200;2022-07-29T10:29:24;15.67;;;7.10;;
651;SDS011;310;48.490;9.200;2022-07-29T10:37:42;10.20;;;7.20;;
651;SDS011;310;48.490;9.200;2022-07-29T10:43:29;20.53;;;6.70;;
651;SDS011;310;48.490;9.200;2022-07-29T10:46:00;14.70;;;6.87;;
651;SDS011;310;48.490;9.200;2022-07-29T10:48:27;9.80;;;6.70;;
651;SDS011;310;48.490;9.200;2022-07-29T10:50:57;8.07;;;6.57;;
651;SDS011;310;48.490;9.200;2022-07-29T10:53:45;8.47;;;6.87;;
651;SDS011;310;48.490;9.200;2022-07-29T10:56:28;12.23;;;6.93;;
651;SDS011;310;48.490;9.200;2022-07-29T11:01:43;12.30;;;7.10;;
651;SDS011;310;48.490;9.200;2022-07-29T11:04:09;14.70;;;7.00;;
651;SDS011;310;48.490;9.200;2022-07-29T11:09:25;10.80;;;6.47;;
651;SDS011;310;48.490;9.200;2022-07-29T11:11:51;10.60;;;6.40;;
651;SDS011;310;48.490;9.200;2022-07-29T11:14:17;20.67;;;6.67;;
651;SDS011;310;48.490;9.200;2022-07-29T11:17:00;8.73;;;5.70;;
651;SDS011;310;48.490;9.200;2022-07-29T11:19:27;10.50;;;5.77;;
651;SDS011;310;48.490;9.200;2022-07-29T11:21:53;12.57;;;6.43;;
651;SDS011;310;48.490;9.200;2022-07-29T11:24:20;7.87;;;5.83;;
651;SDS011;310;48.490;9.200;2022-07-29T11:29:55;8.83;;;6.07;;
651;SDS011;310;48.490;9.200;2022-07-29T11:32:23;10.20;;;6.10;;
651;SDS011;310;48.490;9.200;2022-07-29T11:37:37;14.47;;;6.30;;
651;SDS011;310;48.490;9.200;2022-07-29T11:45:05;14.50;;;6.87;;
651;SDS011;310;48.490;9.200;2022-07-29T11:47:38;9.10;;;6.87;;
651;SDS011;310;48.490;9.200;2022-07-29T11:50:16;9.27;;;7.17;;
651;SDS011;310;48.490;9.200;2022-07-29T11:52:51;9.97;;;6.87;;
651;SDS011;310;48.490;9.200;2022-07-29T11:55:17;8.10;;;6.67;;
651;SDS011;310;48.490;9.200;2022-07-29T11:58:03;8.07;;;6.10;;
651;SDS011;310;48.490;9.200;2022-07-29T12:02:58;10.93;;;6.97;;
651;SDS011;310;48.490;9.200;2022-07-29T12:05:32;17.27;;;8.03;;
651;SDS011;310;48.490;9.200;2022-07-29T12:08:13;11.47;;;7.00;;
651;SDS011;310;48.490;9.200;2022-07-29T12:10:43;11.23;;;6.87;;
651;SDS011;310;48.490;9.200;2022-07-29T12:13:10;22.50;;;7.20;;
651;SDS011;310;48.490;9.200;2022-07-29T12:15:36;9.67;;;7.37;;
651;SDS011;310;48.490;9.200;2022-07-29T12:18:15;8.73;;;7.37;;
651;SDS011;310;48.490;9.200;2022-07-29T12:20:43;20.40;;;8.93;;
651;SDS011;310;48.490;9.200;2022-07-29T12:23:09;22.20;;;8.33;;
651;SDS011;310;48.490;9.200;2022-07-29T12:25:39;11.97;;;7.63;;
651;SDS011;310;48.490;9.200;2022-07-29T12:28:08;10.77;;;8.37;;
651;SDS011;310;48.490;9.200;2022-07-29T12:30:42;8.07;;;7.30;;
651;SDS011;310;48.490;9.200;2022-07-29T12:33:18;12.90;;;7.60;;
651;SDS011;310;48.490;9.200;2022-07-29T12:35:45;12.87;;;7.27;;
651;SDS011;310;48.490;9.200;2022-07-29T12:38:13;13.00;;;7.33;;
651;SDS011;310;48.490;9.200;2022-07-29T12:40:39;11.23;;;7.77;;
651;SDS011;310;48.490;9.200;2022-07-29T12:43:09;29.93;;;9.63;;
651;SDS011;310;48.490;9.200;2022-07-29T12:45:35;16.47;;;8.73;;
651;SDS011;310;48.490;9.200;2022-07-29T12:48:02;14.43;;;8.47;;
651;SDS011;310;48.490;9.200;2022-07-29T12:50:28;14.77;;;8.90;;
651;SDS011;310;48.490;9.200;2022-07-29T12:52:54;21.13;;;9.03;;
651;SDS011;310;48.490;9.200;2022-07-29T12:55:41;13.53;;;9.20;;
651;SDS011;310;48.490;9.200;2022-07-29T12:58:13;15.50;;;9.70;;
651;SDS011;310;48.490;9.200;2022-07-29T13:00:58;21.83;;;9.83;;
651;SDS011;310;48.490;9.200;2022-07-29T13:03:25;12.57;;;9.37;;
651;SDS011;310;48.490;9.200;2022-07-29T13:05:51;15.93;;;9.80;;
651;SDS011;310;48.490;9.200;2022-07-29T13:08:17;18.10;;;9.80;;
651;SDS011;310;48.490;9.200;2022-07-29T13:10:45;13.73;;;9.07;;
651;SDS011;310;48.490;9.200;2022-07-29T13:13:13;11.33;;;8.40;;
651;SDS011;310;48.490;9.200;2022-07-29T13:15:43;17.60;;;9.00;;
651;SDS011;310;48.490;9.200;2022-07-29T13:18:27;12.03;;;8.77;;
651;SDS011;310;48.490;9.200;2022-07-29T13:20:54;13.07;;;8.93;;
651;SDS011;310;48.490;9.200;2022-07-29T13:23:20;11.10;;;8.37;;
651;SDS011;310;48.490;9.200;2022-07-29T13:25:47;11.27;;;8.40;;
651;SDS011;310;48.490;9.200;2022-07-29T13:28:12;10.20;;;8.40;;
651;SDS011;310;48.490;9.200;2022-07-29T13:30:39;14.80;;;9.13;;
651;SDS011;310;48.490;9.200;2022-07-29T13:33:05;11.63;;;8.37;;
651;SDS011;310;48.490;9.200;2022-07-29T13:35:31;10.63;;;8.40;;
651;SDS011;310;48.490;9.200;2022-07-29T13:37:57;16.90;;;7.73;;
651;SDS011;310;48.490;9.200;2022-07-29T13:40:23;9.80;;;7.90;;
651;SDS011;310;48.490;9.200;2022-07-29T13:42:49;13.40;;;8.83;;
651;SDS011;310;48.490;9.200;2022-07-29T13:45:15;14.20;;;7.60;;
651;SDS011;310;48.490;9.200;2022-07-29T13:47:41;12.70;;;7.60;;
651;SDS011;310;48.490;9.200;2022-07-29T13:50:07;14.07;;;7.47;;
651;SDS011;310;48.490;9.200;2022-07-29T13:52:35;9.63;;;7.00;;
651;SDS011;310;48.490;9.200;2022-07-29T13:55:01;12.13;;;7.47;;
651;SDS011;310;48.490;9.200;2022-07-29T13:57:28;8.40;;;7.10;;
651;SDS011;310;48.490;9.200;2022-07-29T13:59:53;10.00;;;6.90;;
651;SDS011;310;48.490;9.200;2022-07-29T14:02:20;13.30;;;6.67;;
651;SDS011;310;48.490;9.200;2022-07-29T14:04:46;9.53;;;7.50;;
651;SDS011;310;48.490;9.200;2022-07-29T14:07:11;11.00;;;7.30;;
651;SDS011;310;48.490;9.200;2022-07-29T14:09:37;14.70;;;7.40;;
651;SDS011;310;48.490;9.200;2022-07-29T14:12:03;9.17;;;7.70;;
651;SDS011;310;48.490;9.200;2022-07-29T14:14:29;8.60;;;7.30;;
651;SDS011;310;48.490;9.200;2022-07-29T14:16:56;9.20;;;6.70;;
651;SDS011;310;48.490;9.200;2022-07-29T14:19:22;10.67;;;7.37;;
651;SDS011;310;48.490;9.200;2022-07-29T14:21:47;9.00;;;7.00;;
651;SDS011;310;48.490;9.200;2022-07-29T14:24:13;8.13;;;6.47;;
651;SDS011;310;48.490;9.200;2022-07-29T14:26:38;11.43;;;7.00;;
651;SDS011;310;48.490;9.200;2022-07-29T14:29:04;11.53;;;7.50;;
651;SDS011;310;48.490;9.200;2022-07-29T14:31:30;14.40;;;7.40;;
651;SDS011;310;48.490;9.200;2022-07-29T14:33:55;10.30;;;7.50;;
651;SDS011;310;48.490;9.200;2022-07-29T14:36:21;10.30;;;7.90;;
651;SDS011;310;48.490;9.200;2022-07-29T14:38:46;11.20;;;7.10;;
651;SDS011;310;48.490;9.200;2022-07-29T14:41:12;9.30;;;7.73;;
651;SDS011;310;48.490;9.200;2022-07-29T14:43:38;11.43;;;7.30;;
651;SDS011;310;48.490;9.200;2022-07-29T14:46:03;12.77;;;6.67;;
651;SDS011;310;48.490;9.200;2022-07-29T14:48:29;9.27;;;7.20;;
651;SDS011;310;48.490;9.200;2022-07-29T14:50:55;10.73;;;7.90;;
651;SDS011;310;48.490;9.200;2022-07-29T14:53:21;11.40;;;6.80;;
651;SDS011;310;48.490;9.200;2022-07-29T14:55:47;9.63;;;6.63;;
651;SDS011;310;48.490;9.200;2022-07-29T14:58:13;7.50;;;6.67;;
651;SDS011;310;48.490;9.200;2022-07-29T15:00:39;10.03;;;6.20;;
651;SDS011;310;48.490;9.200;2022-07-29T15:03:04;9.53;;;6.63;;
651;SDS011;310;48.490;9.200;2022-07-29T15:05:30;10.47;;;7.60;;
651;SDS011;310;48.490;9.200;2022-07-29T15:07:56;8.33;;;7.17;;
651;SDS011;310;48.490;9.200;2022-07-29T15:10:23;7.80;;;7.00;;
651;SDS011;310;48.490;9.200;2022-07-29T15:12:51;13.80;;;7.20;;
651;SDS011;310;48.490;9.200;2022-07-29T15:15:17;14.33;;;7.43;;
651;SDS011;310;48.490;9.200;2022-07-29T15:17:43;14.83;;;7.80;;
651;SDS011;310;48.490;9.200;2022-07-29T15:20:09;8.57;;;6.80;;
651;SDS011;310;48.490;9.200;2022-07-29T15:22:36;7.83;;;7.33;;
651;SDS011;310;48.490;9.200;2022-07-29T15:25:03;7.70;;;7.30;;
651;SDS011;310;48.490;9.200;2022-07-29T15:27:29;9.60;;;6.90;;
651;SDS011;310;48.490;9.200;2022-07-29T15:29:55;11.90;;;7.57;;
651;SDS011;310;48.490;9.200;2022-07-29T15:32:21;7.63;;;7.20;;
651;SDS011;310;48.490;9.200;2022-07-29T15:34:46;12.37;;;7.07;;
651;SDS011;310;48.490;9.200;2022-07-29T15:37:12;10.23;;;7.20;;
651;SDS011;310;48.490;9.200;2022-07-29T15:39:38;9.10;;;6.83;;
651;SDS011;310;48.490;9.200;2022-07-29T15:42:03;10.23;;;7.47;;
651;SDS011;310;48.490;9.200;2022-07-29T15:44:29;18.33;;;8.37;;
651;SDS011;310;48.490;9.200;2022-07-29T15:46:55;14.13;;;7.80;;
651;SDS011;310;48.490;9.200;2022-07-29T15:49:36;12.40;;;8.37;;
651;SDS011;310;48.490;9.200;2022-07-29T15:52:04;14.43;;;7.97;;
651;SDS011;310;48.490;9.200;2022-07-29T15:54:32;20.43;;;8.20;;
651;SDS011;310;48.490;9.200;2022-07-29T15:56:59;21.27;;;9.80;;
651;SDS011;310;48.490;9.200;2022-07-29T15:59:24;18.73;;;8.50;;
651;SDS011;310;48.490;9.200;2022-07-29T16:01:50;11.50;;;8.20;;
651;SDS011;310;48.490;9.200;2022-07-29T16:04:16;17.87;;;8.47;;
651;SDS011;310;48.490;9.200;2022-07-29T16:06:42;10.77;;;7.87;;
651;SDS011;310;48.490;9.200;2022-07-29T16:09:08;14.90;;;8.87;;
651;SDS011;310;48.490;9.200;2022-07-29T16:11:34;15.63;;;8.50;;
651;SDS011;310;48.490;9.200;2022-07-29T16:14:00;9.53;;;7.70;;
651;SDS011;310;48.490;9.200;2022-07-29T16:16:25;10.67;;;7.90;;
651;SDS011;310;48.490;9.200;2022-07-29T16:18:51;14.90;;;8.63;;
651;SDS011;310;48.490;9.200;2022-07-29T16:21:17;11.63;;;7.40;;